Grace S — J8B4459 — position and weather

sailwx.info

Track history (hours):
 
Tides and Currents Weather Stations Pressure Air Temp Water Temp Dewpoint Dewpoint Depression Visibility Wind Speed Wind Dir Waves Ship Positions

Grace S

Last reported at 2017-Oct-22 12:14 UTC. Time now 2017-Oct-23 02:46 UTC.
Position N 43°45' E 028°45'.

Length 70 m; draft 2 m.

Type: Cargo ship. MMSI: 377757000.

Date/timePositionNaut miles runAvg speedWind from/ knotsBaromVisibWave heightAir tempDewpointWater temp
2017-Oct-22 12:14N 43°45' E 028°45'2 7.2
2017-Oct-22 12:00N 43°46' E 028°45'4 7.4
2017-Oct-22 11:30N 43°50' E 028°46'4 7.3
2017-Oct-22 11:00N 43°54' E 028°47'4 7.3
2017-Oct-22 10:31N 43°57' E 028°47'4 7.0
2017-Oct-22 10:01N 44°01' E 028°47'4 7.3
2017-Oct-22 09:30N 44°04' E 028°44'4 7.6
2017-Oct-22 09:01N 44°07' E 028°41'3 5.6
2017-Oct-22 08:28N 44°09' E 028°39'0 0.1
2017-Oct-22 07:52N 44°09' E 028°39'0 0.0
2017-Oct-22 07:28N 44°09' E 028°39'0 0.0
2017-Oct-22 06:58N 44°09' E 028°39'0 0.0
2017-Oct-22 06:28N 44°09' E 028°39'0 0.0
2017-Oct-22 05:58N 44°09' E 028°39'0 0.0
2017-Oct-22 05:28N 44°09' E 028°39'0 0.0
2017-Oct-22 04:58N 44°09' E 028°39'0 0.0
2017-Oct-22 04:28N 44°09' E 028°39'0 0.0
2017-Oct-22 03:58N 44°09' E 028°39'0 0.0
2017-Oct-22 03:28N 44°09' E 028°39'0 0.0
2017-Oct-22 02:58N 44°09' E 028°39'0 0.0
2017-Oct-22 02:28N 44°09' E 028°39'0 0.0
2017-Oct-22 01:58N 44°09' E 028°39'0 0.0
2017-Oct-22 01:28N 44°09' E 028°39'0 0.0
2017-Oct-22 00:58N 44°09' E 028°39'0 0.0
2017-Oct-22 00:28N 44°09' E 028°39'0 0.0
2017-Oct-21 23:58N 44°09' E 028°39'0 0.0
2017-Oct-21 23:28N 44°09' E 028°39'0 0.0
2017-Oct-21 22:58N 44°09' E 028°39'0 0.0
2017-Oct-21 22:28N 44°09' E 028°39'0 0.0
2017-Oct-21 21:58N 44°09' E 028°39'0 0.0
2017-Oct-21 21:28N 44°09' E 028°39'0 0.0
2017-Oct-21 20:58N 44°09' E 028°39'0 0.0
2017-Oct-21 20:25N 44°09' E 028°39'0 0.0
2017-Oct-21 19:58N 44°09' E 028°39'0 0.0
2017-Oct-21 19:28N 44°09' E 028°39'0 0.0
2017-Oct-21 18:58N 44°09' E 028°39'0 0.0
2017-Oct-21 18:28N 44°09' E 028°39'0 0.0
2017-Oct-21 17:58N 44°09' E 028°39'0 0.0
2017-Oct-21 17:28N 44°09' E 028°39'0 0.0
2017-Oct-21 16:58N 44°09' E 028°39'0 0.0
2017-Oct-21 16:28N 44°09' E 028°39'0 0.0
2017-Oct-21 15:58N 44°09' E 028°39'0 0.0
2017-Oct-21 15:28N 44°09' E 028°39'0 0.0
2017-Oct-21 14:58N 44°09' E 028°39'0 0.0
2017-Oct-21 14:31N 44°09' E 028°39'0 0.0
2017-Oct-21 13:30N 44°09' E 028°39'0 0.0
2017-Oct-21 13:00N 44°09' E 028°39'0 0.0
2017-Oct-21 12:30N 44°09' E 028°39'0 0.0
2017-Oct-21 12:00N 44°09' E 028°39'0 0.0
2017-Oct-21 11:30N 44°09' E 028°39'0 0.0
2017-Oct-21 11:00N 44°09' E 028°39'0 0.0
2017-Oct-21 10:30N 44°09' E 028°39'0 0.0
2017-Oct-21 10:00N 44°09' E 028°39'0 0.0
2017-Oct-21 09:30N 44°09' E 028°39'0 0.0
2017-Oct-21 09:00N 44°09' E 028°39'0 0.0
2017-Oct-21 08:30N 44°09' E 028°39'0 0.0
2017-Oct-21 08:00N 44°09' E 028°39'0 0.0
2017-Oct-21 07:30N 44°09' E 028°39'0 0.0
2017-Oct-21 07:00N 44°09' E 028°39'0 0.0
2017-Oct-21 06:30N 44°09' E 028°39'0 0.0
2017-Oct-21 06:00N 44°09' E 028°39'0 0.0
2017-Oct-21 05:30N 44°09' E 028°39'0 0.0
2017-Oct-21 05:00N 44°09' E 028°39'0 0.0
2017-Oct-21 04:30N 44°09' E 028°39'0 0.0
2017-Oct-21 04:00N 44°09' E 028°39'0 0.0
2017-Oct-21 03:30N 44°09' E 028°39'0 0.0
2017-Oct-21 03:00N 44°09' E 028°39'0 0.0
2017-Oct-21 02:30N 44°09' E 028°39'0 0.0
2017-Oct-21 02:00N 44°09' E 028°39'0 0.0
2017-Oct-21 01:30N 44°09' E 028°39'0 0.0
2017-Oct-21 01:00N 44°09' E 028°39'0 0.0
2017-Oct-21 00:30N 44°09' E 028°39'0 0.0
2017-Oct-21 00:00N 44°09' E 028°39'0 0.0
2017-Oct-20 23:30N 44°09' E 028°39'0 0.0
2017-Oct-20 23:00N 44°09' E 028°39'0 0.0
2017-Oct-20 22:30N 44°09' E 028°39'0 0.0
2017-Oct-20 22:00N 44°09' E 028°39'0 0.0
2017-Oct-20 21:30N 44°09' E 028°39'0 0.0
2017-Oct-20 21:00N 44°09' E 028°39'0 0.2
2017-Oct-20 20:30N 44°09' E 028°39'1 2.3
2017-Oct-20 20:00N 44°09' E 028°40'3 6.6
2017-Oct-20 19:30N 44°06' E 028°42'2 4.3
2017-Oct-20 19:01N 44°06' E 028°45'1 2.5
2017-Oct-20 18:29N 44°07' E 028°45'0 0.0
2017-Oct-20 17:59N 44°07' E 028°45'0 0.0
2017-Oct-20 17:29N 44°07' E 028°45'0 0.0
2017-Oct-20 16:59N 44°07' E 028°45'0 0.0
2017-Oct-20 16:29N 44°07' E 028°45'0 0.0
2017-Oct-20 15:59N 44°07' E 028°45'0 0.0
2017-Oct-20 15:29N 44°07' E 028°45'0 0.0
2017-Oct-20 15:00N 44°07' E 028°45'0 0.0
2017-Oct-20 13:57N 44°07' E 028°45'0 0.0
2017-Oct-20 13:30N 44°07' E 028°45'0 0.0
2017-Oct-20 13:00N 44°07' E 028°45'0 0.0
2017-Oct-20 12:24N 44°07' E 028°45'0 0.0
2017-Oct-20 12:00N 44°07' E 028°45'0 0.0
2017-Oct-20 11:30N 44°07' E 028°45'0 0.0
2017-Oct-20 11:00N 44°07' E 028°45'0 0.0
2017-Oct-20 10:30N 44°07' E 028°45'0 0.0
2017-Oct-20 10:00N 44°07' E 028°45'0 0.0
2017-Oct-20 09:30N 44°07' E 028°45'0 0.0
2017-Oct-20 08:57N 44°07' E 028°45'0 0.0
2017-Oct-20 08:27N 44°07' E 028°45'0 0.0
2017-Oct-20 08:00N 44°07' E 028°45'0 0.0
2017-Oct-20 07:30N 44°07' E 028°45'0 0.0
2017-Oct-20 07:00N 44°07' E 028°45'0 0.0
2017-Oct-20 06:30N 44°07' E 028°45'0 0.0
2017-Oct-20 06:00N 44°07' E 028°45'0 0.0
2017-Oct-20 05:30N 44°07' E 028°45'0 0.0
2017-Oct-20 05:00N 44°07' E 028°45'0 0.0
2017-Oct-20 04:30N 44°07' E 028°45'0 0.0
2017-Oct-20 04:00N 44°07' E 028°45'0 0.0
2017-Oct-20 03:30N 44°07' E 028°45'0 0.0
2017-Oct-20 02:57N 44°07' E 028°45'0 0.0
2017-Oct-20 02:30N 44°07' E 028°45'0 0.0
2017-Oct-20 02:00N 44°07' E 028°45'0 0.0
2017-Oct-20 01:27N 44°07' E 028°45'0 0.0
2017-Oct-20 01:00N 44°07' E 028°45'0 0.0
2017-Oct-20 00:30N 44°07' E 028°45'0 0.0
2017-Oct-19 23:57N 44°07' E 028°45'0 0.0
2017-Oct-19 23:30N 44°07' E 028°45'0 0.0
2017-Oct-19 22:57N 44°07' E 028°45'0 0.0
2017-Oct-19 22:30N 44°07' E 028°45'0 0.0
2017-Oct-19 21:57N 44°07' E 028°45'0 0.0
2017-Oct-19 21:24N 44°07' E 028°45'0 0.0
2017-Oct-19 21:00N 44°07' E 028°45'0 0.0
2017-Oct-19 20:30N 44°07' E 028°45'0 0.0
2017-Oct-19 20:00N 44°07' E 028°45'0 0.0
2017-Oct-19 19:30N 44°07' E 028°45'0 0.0
2017-Oct-19 19:00N 44°07' E 028°45'0 0.0
2017-Oct-19 18:30N 44°07' E 028°45'0 0.0
2017-Oct-19 17:57N 44°07' E 028°45'0 0.0
2017-Oct-19 17:24N 44°07' E 028°45'0 0.0
2017-Oct-19 17:00N 44°07' E 028°45'0 0.0
2017-Oct-19 16:27N 44°07' E 028°45'0 0.0
2017-Oct-19 16:00N 44°07' E 028°45'0 0.0
2017-Oct-19 15:24N 44°07' E 028°45'0 0.0
2017-Oct-19 15:00N 44°07' E 028°45'0 0.0
2017-Oct-19 14:30N 44°07' E 028°45'0 0.0
2017-Oct-19 14:00N 44°07' E 028°45'0 0.0
2017-Oct-19 13:30N 44°07' E 028°45'0 0.0
2017-Oct-19 13:00N 44°07' E 028°45'0 0.0
2017-Oct-19 12:30N 44°07' E 028°45'0 0.0
2017-Oct-19 11:57N 44°07' E 028°45'0 0.0
2017-Oct-19 11:30N 44°07' E 028°45'0 0.0
2017-Oct-19 11:00N 44°07' E 028°45'0 0.0
2017-Oct-19 10:30N 44°07' E 028°45'0 0.0
2017-Oct-19 10:00N 44°07' E 028°45'0 0.0
2017-Oct-19 09:30N 44°07' E 028°45'0 0.0
2017-Oct-19 08:59N 44°07' E 028°45'0 0.0
2017-Oct-19 08:29N 44°07' E 028°45'0 0.0
2017-Oct-19 07:59N 44°07' E 028°45'0 0.0
2017-Oct-19 07:29N 44°07' E 028°45'0 0.0
2017-Oct-19 06:56N 44°07' E 028°45'0 0.0
2017-Oct-19 06:26N 44°07' E 028°45'0 0.0
2017-Oct-19 05:59N 44°07' E 028°45'0 0.0
2017-Oct-19 05:29N 44°07' E 028°45'0 0.0
2017-Oct-19 04:59N 44°07' E 028°45'0 0.0
2017-Oct-19 04:29N 44°07' E 028°45'0 0.0
2017-Oct-19 03:59N 44°07' E 028°45'0 0.0
2017-Oct-19 03:29N 44°07' E 028°45'0 0.0
2017-Oct-19 02:59N 44°07' E 028°45'0 0.0
2017-Oct-19 02:29N 44°07' E 028°45'0 0.0
2017-Oct-19 01:53N 44°07' E 028°45'0 0.0
2017-Oct-19 01:29N 44°07' E 028°45'0 0.0
2017-Oct-19 00:59N 44°07' E 028°45'0 0.0
2017-Oct-19 00:26N 44°07' E 028°45'0 0.0
2017-Oct-18 23:59N 44°07' E 028°45'0 0.0
2017-Oct-18 23:29N 44°07' E 028°45'0 0.0
2017-Oct-18 22:59N 44°07' E 028°45'0 0.0
2017-Oct-18 22:29N 44°07' E 028°45'0 0.0
2017-Oct-18 21:59N 44°07' E 028°45'0 0.0
2017-Oct-18 21:29N 44°07' E 028°45'0 0.0
2017-Oct-18 20:59N 44°07' E 028°45'0 0.0
2017-Oct-18 20:29N 44°07' E 028°45'0 0.0
2017-Oct-18 19:56N 44°07' E 028°45'0 0.0
2017-Oct-18 19:29N 44°07' E 028°45'0 0.0
2017-Oct-18 18:56N 44°07' E 028°45'0 0.0
2017-Oct-18 18:29N 44°07' E 028°45'0 0.0
2017-Oct-18 17:59N 44°07' E 028°45'0 0.0
2017-Oct-18 17:29N 44°07' E 028°45'0 0.0
2017-Oct-18 16:59N 44°07' E 028°45'0 0.0
2017-Oct-18 16:29N 44°07' E 028°45'0 0.0
2017-Oct-18 15:59N 44°07' E 028°45'0 0.0
2017-Oct-18 15:29N 44°07' E 028°45'0 0.0
2017-Oct-18 14:56N 44°07' E 028°45'0 0.0
2017-Oct-18 13:59N 44°07' E 028°45'0 0.0
2017-Oct-18 13:29N 44°07' E 028°45'0 0.0
2017-Oct-18 12:55N 44°07' E 028°45'0 0.0
2017-Oct-18 12:28N 44°07' E 028°45'0 0.0
2017-Oct-18 11:58N 44°07' E 028°45'0 0.0
2017-Oct-18 11:28N 44°07' E 028°45'0 0.0
2017-Oct-18 10:58N 44°07' E 028°45'0 0.0
2017-Oct-18 10:28N 44°07' E 028°45'0 0.0
2017-Oct-18 09:58N 44°07' E 028°45'0 0.0
2017-Oct-18 09:28N 44°07' E 028°45'0 0.0
2017-Oct-18 08:58N 44°07' E 028°45'0 0.0
2017-Oct-18 08:28N 44°07' E 028°45'0 0.1
2017-Oct-18 07:58N 44°07' E 028°45'0 0.0
2017-Oct-18 07:28N 44°07' E 028°45'0 0.0
2017-Oct-18 06:58N 44°07' E 028°45'0 0.0
2017-Oct-18 06:22N 44°07' E 028°45'0 0.0
2017-Oct-18 05:55N 44°07' E 028°45'0 0.0
2017-Oct-18 05:28N 44°07' E 028°45'0 0.0
2017-Oct-18 04:58N 44°07' E 028°45'0 0.0
2017-Oct-18 04:28N 44°07' E 028°45'0 0.0
2017-Oct-18 03:58N 44°07' E 028°45'0 0.0
2017-Oct-18 03:28N 44°07' E 028°45'0 0.0
2017-Oct-18 02:58N 44°07' E 028°45'0 0.0
2017-Oct-18 02:28N 44°07' E 028°45'0 0.0
2017-Oct-18 01:55N 44°07' E 028°45'0 0.0
2017-Oct-18 01:28N 44°07' E 028°45'0 0.0
2017-Oct-18 00:58N 44°07' E 028°45'0 0.0
2017-Oct-18 00:28N 44°07' E 028°45'0 0.0
2017-Oct-17 23:58N 44°07' E 028°45'0 0.0
2017-Oct-17 23:28N 44°07' E 028°45'0 0.0
2017-Oct-17 22:58N 44°07' E 028°45'0 0.0
2017-Oct-17 22:28N 44°07' E 028°45'0 0.0
2017-Oct-17 21:58N 44°07' E 028°45'0 0.0
2017-Oct-17 21:28N 44°07' E 028°45'0 0.0
2017-Oct-17 20:58N 44°07' E 028°45'0 0.0
2017-Oct-17 20:28N 44°07' E 028°45'0 0.0
2017-Oct-17 19:58N 44°07' E 028°45'0 0.0
2017-Oct-17 19:28N 44°07' E 028°45'0 0.0
2017-Oct-17 18:55N 44°07' E 028°45'0 0.0
2017-Oct-17 18:28N 44°07' E 028°45'0 0.0
2017-Oct-17 18:01N 44°07' E 028°45'0 0.0
2017-Oct-17 17:30N 44°07' E 028°45'0 0.0
2017-Oct-17 17:00N 44°07' E 028°45'0 0.0
2017-Oct-17 16:30N 44°07' E 028°45'0 0.0
2017-Oct-17 16:00N 44°07' E 028°45'0 0.0
2017-Oct-17 15:30N 44°07' E 028°45'0 0.0
2017-Oct-17 15:00N 44°07' E 028°45'0 0.0
2017-Oct-17 14:30N 44°07' E 028°45'0 0.0
2017-Oct-17 14:00N 44°07' E 028°45'0 0.0
2017-Oct-17 13:30N 44°07' E 028°45'0 0.0
2017-Oct-17 13:00N 44°07' E 028°45'0 0.0
2017-Oct-17 12:30N 44°07' E 028°45'0 0.0
2017-Oct-17 12:00N 44°07' E 028°45'0 0.0
2017-Oct-17 11:30N 44°07' E 028°45'0 0.0
2017-Oct-17 11:00N 44°07' E 028°45'0 0.0
2017-Oct-17 10:30N 44°07' E 028°45'0 0.0
2017-Oct-17 09:57N 44°07' E 028°45'0 0.0
2017-Oct-17 09:30N 44°07' E 028°45'0 0.0
2017-Oct-17 09:00N 44°07' E 028°45'1 2.5
2017-Oct-17 08:30N 44°06' E 028°46'4 8.6
2017-Oct-17 08:00N 44°01' E 028°48'5 9.1
2017-Oct-17 07:31N 43°57' E 028°50'5 9.2
2017-Oct-17 07:00N 43°53' E 028°51'5 9.2
2017-Oct-17 06:31N 43°48' E 028°52'5 9.0
2017-Oct-17 06:00N 43°44' E 028°52'4 8.9
2017-Oct-17 05:30N 43°39' E 028°52'4 8.7
2017-Oct-17 05:01N 43°35' E 028°53'4 8.7
2017-Oct-17 04:30N 43°31' E 028°54'4 8.8
2017-Oct-17 04:00N 43°26' E 028°55'4 8.9
2017-Oct-17 03:30N 43°22' E 028°56'148 7.5
2017-Oct-16 07:49N 40°54' E 029°06'1 4.7
2017-Oct-16 07:30N 40°54' E 029°08'3 5.6
2017-Oct-16 07:00N 40°53' E 029°11'0 0.2
2017-Oct-16 06:13N 40°53' E 029°11'0 0.0
2017-Oct-16 05:49N 40°53' E 029°11'0 0.1
2017-Oct-16 05:25N 40°53' E 029°11'0 0.0
2017-Oct-16 04:55N 40°53' E 029°11'0 0.0
2017-Oct-16 04:25N 40°53' E 029°11'0 0.0
2017-Oct-16 03:49N 40°53' E 029°11'0 0.0
2017-Oct-16 03:25N 40°53' E 029°11'0 0.0
2017-Oct-16 02:55N 40°53' E 029°11'0 0.0
2017-Oct-16 02:25N 40°53' E 029°11'0 0.0
2017-Oct-16 01:49N 40°53' E 029°11'0 0.0
2017-Oct-16 01:25N 40°53' E 029°11'0 0.0
2017-Oct-16 00:55N 40°53' E 029°11'0 0.0
2017-Oct-16 00:19N 40°53' E 029°11'0 0.0
2017-Oct-15 23:55N 40°53' E 029°11'0 0.0
2017-Oct-15 23:19N 40°53' E 029°11'0 0.0
2017-Oct-15 22:55N 40°53' E 029°11'0 0.0
2017-Oct-15 22:25N 40°53' E 029°11'0 0.0
2017-Oct-15 21:55N 40°53' E 029°11'0 0.0
2017-Oct-15 21:25N 40°53' E 029°11'0 0.1
2017-Oct-15 20:55N 40°53' E 029°11'0 0.1
2017-Oct-15 20:18N 40°53' E 029°11'0 0.0
2017-Oct-15 20:00N 40°53' E 029°11'0 0.0
2017-Oct-15 19:30N 40°53' E 029°11'0 0.0
2017-Oct-15 18:54N 40°53' E 029°11'0 0.0
2017-Oct-15 18:27N 40°53' E 029°11'0 0.0
2017-Oct-15 17:57N 40°53' E 029°11'0 0.0
2017-Oct-15 17:27N 40°53' E 029°11'0 0.0
2017-Oct-15 16:57N 40°53' E 029°11'0 0.0
2017-Oct-15 16:21N 40°53' E 029°11'0 0.0
2017-Oct-15 15:49N 40°53' E 029°11'0 0.0
2017-Oct-15 15:25N 40°53' E 029°11'0 0.0
2017-Oct-15 14:49N 40°53' E 029°11'0 0.0
2017-Oct-15 13:49N 40°53' E 029°11'0 0.0
2017-Oct-15 13:25N 40°53' E 029°11'0 0.0
2017-Oct-15 12:55N 40°53' E 029°11'0 0.0
2017-Oct-15 12:25N 40°53' E 029°11'0 0.0
2017-Oct-15 11:55N 40°53' E 029°11'0 0.0
2017-Oct-15 11:25N 40°53' E 029°11'0 0.0
2017-Oct-15 10:55N 40°53' E 029°11'0 0.0
2017-Oct-15 10:25N 40°53' E 029°11'0 0.0
2017-Oct-15 09:55N 40°53' E 029°11'0 0.0
2017-Oct-15 09:07N 40°53' E 029°11'0 0.1
2017-Oct-15 08:37N 40°53' E 029°11'0 0.0
2017-Oct-15 08:19N 40°53' E 029°11'0 0.0
2017-Oct-15 07:55N 40°53' E 029°11'0 0.1
2017-Oct-15 07:25N 40°53' E 029°11'0 0.0
2017-Oct-15 06:55N 40°53' E 029°11'0 0.1
2017-Oct-15 06:25N 40°53' E 029°11'0 0.1
2017-Oct-15 05:55N 40°53' E 029°11'0 0.0
2017-Oct-15 05:19N 40°53' E 029°11'0 0.0
2017-Oct-15 04:49N 40°53' E 029°11'0 0.0
2017-Oct-15 04:13N 40°53' E 029°11'0 0.0
2017-Oct-15 03:55N 40°53' E 029°11'0 0.0
2017-Oct-15 03:25N 40°53' E 029°11'0 0.0
2017-Oct-15 02:55N 40°53' E 029°11'0 0.1
2017-Oct-15 02:25N 40°53' E 029°11'0 0.1
2017-Oct-15 01:55N 40°53' E 029°11'0 0.0
2017-Oct-15 01:19N 40°53' E 029°11'0 0.0
2017-Oct-15 00:55N 40°53' E 029°11'0 0.0
2017-Oct-15 00:25N 40°53' E 029°11'0 0.0
2017-Oct-14 23:55N 40°53' E 029°11'0 0.0
2017-Oct-14 23:25N 40°53' E 029°11'0 0.0
2017-Oct-14 22:55N 40°53' E 029°11'0 0.0
2017-Oct-14 22:25N 40°53' E 029°11'0 0.0
2017-Oct-14 21:55N 40°53' E 029°11'0 0.0
2017-Oct-14 21:25N 40°53' E 029°11'0 0.0
2017-Oct-14 20:55N 40°53' E 029°11'0 0.0
2017-Oct-14 20:25N 40°53' E 029°11'0 0.0
2017-Oct-14 19:55N 40°53' E 029°11'0 0.0
2017-Oct-14 19:25N 40°53' E 029°11'0 0.0
2017-Oct-14 18:49N 40°53' E 029°11'0 0.0
2017-Oct-14 18:25N 40°53' E 029°11'0 0.0
2017-Oct-14 17:55N 40°53' E 029°11'0 0.0
2017-Oct-14 17:25N 40°53' E 029°11'0 0.1
2017-Oct-14 17:00N 40°53' E 029°11'2 3.7
2017-Oct-14 16:30N 40°51' E 029°12'4 8.3
2017-Oct-14 16:00N 40°47' E 029°15'5 8.9
2017-Oct-14 15:30N 40°45' E 029°20'  
Track history (hours):
 
Tides and Currents Weather Stations Pressure Air Temp Water Temp Dewpoint Dewpoint Depression Visibility Wind Speed Wind Dir Waves Ship Positions

Grace S

Last reported at 2017-Oct-22 12:14 UTC. Time now 2017-Oct-23 02:46 UTC.
Position N 43°45' E 028°45'.

Length 70 m; draft 2 m.

Type: Cargo ship. MMSI: 377757000.

Date/timePositionNaut miles runAvg speedWind from/ knotsBaromVisibWave heightAir tempDewpointWater temp
2017-Oct-22 12:14N 43°45' E 028°45'2 7.2
2017-Oct-22 12:00N 43°46' E 028°45'4 7.4
2017-Oct-22 11:30N 43°50' E 028°46'4 7.3
2017-Oct-22 11:00N 43°54' E 028°47'4 7.3
2017-Oct-22 10:31N 43°57' E 028°47'4 7.0
2017-Oct-22 10:01N 44°01' E 028°47'4 7.3
2017-Oct-22 09:30N 44°04' E 028°44'4 7.6
2017-Oct-22 09:01N 44°07' E 028°41'3 5.6
2017-Oct-22 08:28N 44°09' E 028°39'0 0.1
2017-Oct-22 07:52N 44°09' E 028°39'0 0.0
2017-Oct-22 07:28N 44°09' E 028°39'0 0.0
2017-Oct-22 06:58N 44°09' E 028°39'0 0.0
2017-Oct-22 06:28N 44°09' E 028°39'0 0.0
2017-Oct-22 05:58N 44°09' E 028°39'0 0.0
2017-Oct-22 05:28N 44°09' E 028°39'0 0.0
2017-Oct-22 04:58N 44°09' E 028°39'0 0.0
2017-Oct-22 04:28N 44°09' E 028°39'0 0.0
2017-Oct-22 03:58N 44°09' E 028°39'0 0.0
2017-Oct-22 03:28N 44°09' E 028°39'0 0.0
2017-Oct-22 02:58N 44°09' E 028°39'0 0.0
2017-Oct-22 02:28N 44°09' E 028°39'0 0.0
2017-Oct-22 01:58N 44°09' E 028°39'0 0.0
2017-Oct-22 01:28N 44°09' E 028°39'0 0.0
2017-Oct-22 00:58N 44°09' E 028°39'0 0.0
2017-Oct-22 00:28N 44°09' E 028°39'0 0.0
2017-Oct-21 23:58N 44°09' E 028°39'0 0.0
2017-Oct-21 23:28N 44°09' E 028°39'0 0.0
2017-Oct-21 22:58N 44°09' E 028°39'0 0.0
2017-Oct-21 22:28N 44°09' E 028°39'0 0.0
2017-Oct-21 21:58N 44°09' E 028°39'0 0.0
2017-Oct-21 21:28N 44°09' E 028°39'0 0.0
2017-Oct-21 20:58N 44°09' E 028°39'0 0.0
2017-Oct-21 20:25N 44°09' E 028°39'0 0.0
2017-Oct-21 19:58N 44°09' E 028°39'0 0.0
2017-Oct-21 19:28N 44°09' E 028°39'0 0.0
2017-Oct-21 18:58N 44°09' E 028°39'0 0.0
2017-Oct-21 18:28N 44°09' E 028°39'0 0.0
2017-Oct-21 17:58N 44°09' E 028°39'0 0.0
2017-Oct-21 17:28N 44°09' E 028°39'0 0.0
2017-Oct-21 16:58N 44°09' E 028°39'0 0.0
2017-Oct-21 16:28N 44°09' E 028°39'0 0.0
2017-Oct-21 15:58N 44°09' E 028°39'0 0.0
2017-Oct-21 15:28N 44°09' E 028°39'0 0.0
2017-Oct-21 14:58N 44°09' E 028°39'0 0.0
2017-Oct-21 14:31N 44°09' E 028°39'0 0.0
2017-Oct-21 13:30N 44°09' E 028°39'0 0.0
2017-Oct-21 13:00N 44°09' E 028°39'0 0.0
2017-Oct-21 12:30N 44°09' E 028°39'0 0.0
2017-Oct-21 12:00N 44°09' E 028°39'0 0.0
2017-Oct-21 11:30N 44°09' E 028°39'0 0.0
2017-Oct-21 11:00N 44°09' E 028°39'0 0.0
2017-Oct-21 10:30N 44°09' E 028°39'0 0.0
2017-Oct-21 10:00N 44°09' E 028°39'0 0.0
2017-Oct-21 09:30N 44°09' E 028°39'0 0.0
2017-Oct-21 09:00N 44°09' E 028°39'0 0.0
2017-Oct-21 08:30N 44°09' E 028°39'0 0.0
2017-Oct-21 08:00N 44°09' E 028°39'0 0.0
2017-Oct-21 07:30N 44°09' E 028°39'0 0.0
2017-Oct-21 07:00N 44°09' E 028°39'0 0.0
2017-Oct-21 06:30N 44°09' E 028°39'0 0.0
2017-Oct-21 06:00N 44°09' E 028°39'0 0.0
2017-Oct-21 05:30N 44°09' E 028°39'0 0.0
2017-Oct-21 05:00N 44°09' E 028°39'0 0.0
2017-Oct-21 04:30N 44°09' E 028°39'0 0.0
2017-Oct-21 04:00N 44°09' E 028°39'0 0.0
2017-Oct-21 03:30N 44°09' E 028°39'0 0.0
2017-Oct-21 03:00N 44°09' E 028°39'0 0.0
2017-Oct-21 02:30N 44°09' E 028°39'0 0.0
2017-Oct-21 02:00N 44°09' E 028°39'0 0.0
2017-Oct-21 01:30N 44°09' E 028°39'0 0.0
2017-Oct-21 01:00N 44°09' E 028°39'0 0.0
2017-Oct-21 00:30N 44°09' E 028°39'0 0.0
2017-Oct-21 00:00N 44°09' E 028°39'0 0.0
2017-Oct-20 23:30N 44°09' E 028°39'0 0.0
2017-Oct-20 23:00N 44°09' E 028°39'0 0.0
2017-Oct-20 22:30N 44°09' E 028°39'0 0.0
2017-Oct-20 22:00N 44°09' E 028°39'0 0.0
2017-Oct-20 21:30N 44°09' E 028°39'0 0.0
2017-Oct-20 21:00N 44°09' E 028°39'0 0.2
2017-Oct-20 20:30N 44°09' E 028°39'1 2.3
2017-Oct-20 20:00N 44°09' E 028°40'3 6.6
2017-Oct-20 19:30N 44°06' E 028°42'2 4.3
2017-Oct-20 19:01N 44°06' E 028°45'1 2.5
2017-Oct-20 18:29N 44°07' E 028°45'0 0.0
2017-Oct-20 17:59N 44°07' E 028°45'0 0.0
2017-Oct-20 17:29N 44°07' E 028°45'0 0.0
2017-Oct-20 16:59N 44°07' E 028°45'0 0.0
2017-Oct-20 16:29N 44°07' E 028°45'0 0.0
2017-Oct-20 15:59N 44°07' E 028°45'0 0.0
2017-Oct-20 15:29N 44°07' E 028°45'0 0.0
2017-Oct-20 15:00N 44°07' E 028°45'0 0.0
2017-Oct-20 13:57N 44°07' E 028°45'0 0.0
2017-Oct-20 13:30N 44°07' E 028°45'0 0.0
2017-Oct-20 13:00N 44°07' E 028°45'0 0.0
2017-Oct-20 12:24N 44°07' E 028°45'0 0.0
2017-Oct-20 12:00N 44°07' E 028°45'0 0.0
2017-Oct-20 11:30N 44°07' E 028°45'0 0.0
2017-Oct-20 11:00N 44°07' E 028°45'0 0.0
2017-Oct-20 10:30N 44°07' E 028°45'0 0.0
2017-Oct-20 10:00N 44°07' E 028°45'0 0.0
2017-Oct-20 09:30N 44°07' E 028°45'0 0.0
2017-Oct-20 08:57N 44°07' E 028°45'0 0.0
2017-Oct-20 08:27N 44°07' E 028°45'0 0.0
2017-Oct-20 08:00N 44°07' E 028°45'0 0.0
2017-Oct-20 07:30N 44°07' E 028°45'0 0.0
2017-Oct-20 07:00N 44°07' E 028°45'0 0.0
2017-Oct-20 06:30N 44°07' E 028°45'0 0.0
2017-Oct-20 06:00N 44°07' E 028°45'0 0.0
2017-Oct-20 05:30N 44°07' E 028°45'0 0.0
2017-Oct-20 05:00N 44°07' E 028°45'0 0.0
2017-Oct-20 04:30N 44°07' E 028°45'0 0.0
2017-Oct-20 04:00N 44°07' E 028°45'0 0.0
2017-Oct-20 03:30N 44°07' E 028°45'0 0.0
2017-Oct-20 02:57N 44°07' E 028°45'0 0.0
2017-Oct-20 02:30N 44°07' E 028°45'0 0.0
2017-Oct-20 02:00N 44°07' E 028°45'0 0.0
2017-Oct-20 01:27N 44°07' E 028°45'0 0.0
2017-Oct-20 01:00N 44°07' E 028°45'0 0.0
2017-Oct-20 00:30N 44°07' E 028°45'0 0.0
2017-Oct-19 23:57N 44°07' E 028°45'0 0.0
2017-Oct-19 23:30N 44°07' E 028°45'0 0.0
2017-Oct-19 22:57N 44°07' E 028°45'0 0.0
2017-Oct-19 22:30N 44°07' E 028°45'0 0.0
2017-Oct-19 21:57N 44°07' E 028°45'0 0.0
2017-Oct-19 21:24N 44°07' E 028°45'0 0.0
2017-Oct-19 21:00N 44°07' E 028°45'0 0.0
2017-Oct-19 20:30N 44°07' E 028°45'0 0.0
2017-Oct-19 20:00N 44°07' E 028°45'0 0.0
2017-Oct-19 19:30N 44°07' E 028°45'0 0.0
2017-Oct-19 19:00N 44°07' E 028°45'0 0.0
2017-Oct-19 18:30N 44°07' E 028°45'0 0.0
2017-Oct-19 17:57N 44°07' E 028°45'0 0.0
2017-Oct-19 17:24N 44°07' E 028°45'0 0.0
2017-Oct-19 17:00N 44°07' E 028°45'0 0.0
2017-Oct-19 16:27N 44°07' E 028°45'0 0.0
2017-Oct-19 16:00N 44°07' E 028°45'0 0.0
2017-Oct-19 15:24N 44°07' E 028°45'0 0.0
2017-Oct-19 15:00N 44°07' E 028°45'0 0.0
2017-Oct-19 14:30N 44°07' E 028°45'0 0.0
2017-Oct-19 14:00N 44°07' E 028°45'0 0.0
2017-Oct-19 13:30N 44°07' E 028°45'0 0.0
2017-Oct-19 13:00N 44°07' E 028°45'0 0.0
2017-Oct-19 12:30N 44°07' E 028°45'0 0.0
2017-Oct-19 11:57N 44°07' E 028°45'0 0.0
2017-Oct-19 11:30N 44°07' E 028°45'0 0.0
2017-Oct-19 11:00N 44°07' E 028°45'0 0.0
2017-Oct-19 10:30N 44°07' E 028°45'0 0.0
2017-Oct-19 10:00N 44°07' E 028°45'0 0.0
2017-Oct-19 09:30N 44°07' E 028°45'0 0.0
2017-Oct-19 08:59N 44°07' E 028°45'0 0.0
2017-Oct-19 08:29N 44°07' E 028°45'0 0.0
2017-Oct-19 07:59N 44°07' E 028°45'0 0.0
2017-Oct-19 07:29N 44°07' E 028°45'0 0.0
2017-Oct-19 06:56N 44°07' E 028°45'0 0.0
2017-Oct-19 06:26N 44°07' E 028°45'0 0.0
2017-Oct-19 05:59N 44°07' E 028°45'0 0.0
2017-Oct-19 05:29N 44°07' E 028°45'0 0.0
2017-Oct-19 04:59N 44°07' E 028°45'0 0.0
2017-Oct-19 04:29N 44°07' E 028°45'0 0.0
2017-Oct-19 03:59N 44°07' E 028°45'0 0.0
2017-Oct-19 03:29N 44°07' E 028°45'0 0.0
2017-Oct-19 02:59N 44°07' E 028°45'0 0.0
2017-Oct-19 02:29N 44°07' E 028°45'0 0.0
2017-Oct-19 01:53N 44°07' E 028°45'0 0.0
2017-Oct-19 01:29N 44°07' E 028°45'0 0.0
2017-Oct-19 00:59N 44°07' E 028°45'0 0.0
2017-Oct-19 00:26N 44°07' E 028°45'0 0.0
2017-Oct-18 23:59N 44°07' E 028°45'0 0.0
2017-Oct-18 23:29N 44°07' E 028°45'0 0.0
2017-Oct-18 22:59N 44°07' E 028°45'0 0.0
2017-Oct-18 22:29N 44°07' E 028°45'0 0.0
2017-Oct-18 21:59N 44°07' E 028°45'0 0.0
2017-Oct-18 21:29N 44°07' E 028°45'0 0.0
2017-Oct-18 20:59N 44°07' E 028°45'0 0.0
2017-Oct-18 20:29N 44°07' E 028°45'0 0.0
2017-Oct-18 19:56N 44°07' E 028°45'0 0.0
2017-Oct-18 19:29N 44°07' E 028°45'0 0.0
2017-Oct-18 18:56N 44°07' E 028°45'0 0.0
2017-Oct-18 18:29N 44°07' E 028°45'0 0.0
2017-Oct-18 17:59N 44°07' E 028°45'0 0.0
2017-Oct-18 17:29N 44°07' E 028°45'0 0.0
2017-Oct-18 16:59N 44°07' E 028°45'0 0.0
2017-Oct-18 16:29N 44°07' E 028°45'0 0.0
2017-Oct-18 15:59N 44°07' E 028°45'0 0.0
2017-Oct-18 15:29N 44°07' E 028°45'0 0.0
2017-Oct-18 14:56N 44°07' E 028°45'0 0.0
2017-Oct-18 13:59N 44°07' E 028°45'0 0.0
2017-Oct-18 13:29N 44°07' E 028°45'0 0.0
2017-Oct-18 12:55N 44°07' E 028°45'0 0.0
2017-Oct-18 12:28N 44°07' E 028°45'0 0.0
2017-Oct-18 11:58N 44°07' E 028°45'0 0.0
2017-Oct-18 11:28N 44°07' E 028°45'0 0.0
2017-Oct-18 10:58N 44°07' E 028°45'0 0.0
2017-Oct-18 10:28N 44°07' E 028°45'0 0.0
2017-Oct-18 09:58N 44°07' E 028°45'0 0.0
2017-Oct-18 09:28N 44°07' E 028°45'0 0.0
2017-Oct-18 08:58N 44°07' E 028°45'0 0.0
2017-Oct-18 08:28N 44°07' E 028°45'0 0.1
2017-Oct-18 07:58N 44°07' E 028°45'0 0.0
2017-Oct-18 07:28N 44°07' E 028°45'0 0.0
2017-Oct-18 06:58N 44°07' E 028°45'0 0.0
2017-Oct-18 06:22N 44°07' E 028°45'0 0.0
2017-Oct-18 05:55N 44°07' E 028°45'0 0.0
2017-Oct-18 05:28N 44°07' E 028°45'0 0.0
2017-Oct-18 04:58N 44°07' E 028°45'0 0.0
2017-Oct-18 04:28N 44°07' E 028°45'0 0.0
2017-Oct-18 03:58N 44°07' E 028°45'0 0.0
2017-Oct-18 03:28N 44°07' E 028°45'0 0.0
2017-Oct-18 02:58N 44°07' E 028°45'0 0.0
2017-Oct-18 02:28N 44°07' E 028°45'0 0.0
2017-Oct-18 01:55N 44°07' E 028°45'0 0.0
2017-Oct-18 01:28N 44°07' E 028°45'0 0.0
2017-Oct-18 00:58N 44°07' E 028°45'0 0.0
2017-Oct-18 00:28N 44°07' E 028°45'0 0.0
2017-Oct-17 23:58N 44°07' E 028°45'0 0.0
2017-Oct-17 23:28N 44°07' E 028°45'0 0.0
2017-Oct-17 22:58N 44°07' E 028°45'0 0.0
2017-Oct-17 22:28N 44°07' E 028°45'0 0.0
2017-Oct-17 21:58N 44°07' E 028°45'0 0.0
2017-Oct-17 21:28N 44°07' E 028°45'0 0.0
2017-Oct-17 20:58N 44°07' E 028°45'0 0.0
2017-Oct-17 20:28N 44°07' E 028°45'0 0.0
2017-Oct-17 19:58N 44°07' E 028°45'0 0.0
2017-Oct-17 19:28N 44°07' E 028°45'0 0.0
2017-Oct-17 18:55N 44°07' E 028°45'0 0.0
2017-Oct-17 18:28N 44°07' E 028°45'0 0.0
2017-Oct-17 18:01N 44°07' E 028°45'0 0.0
2017-Oct-17 17:30N 44°07' E 028°45'0 0.0
2017-Oct-17 17:00N 44°07' E 028°45'0 0.0
2017-Oct-17 16:30N 44°07' E 028°45'0 0.0
2017-Oct-17 16:00N 44°07' E 028°45'0 0.0
2017-Oct-17 15:30N 44°07' E 028°45'0 0.0
2017-Oct-17 15:00N 44°07' E 028°45'0 0.0
2017-Oct-17 14:30N 44°07' E 028°45'0 0.0
2017-Oct-17 14:00N 44°07' E 028°45'0 0.0
2017-Oct-17 13:30N 44°07' E 028°45'0 0.0
2017-Oct-17 13:00N 44°07' E 028°45'0 0.0
2017-Oct-17 12:30N 44°07' E 028°45'0 0.0
2017-Oct-17 12:00N 44°07' E 028°45'0 0.0
2017-Oct-17 11:30N 44°07' E 028°45'0 0.0
2017-Oct-17 11:00N 44°07' E 028°45'0 0.0
2017-Oct-17 10:30N 44°07' E 028°45'0 0.0
2017-Oct-17 09:57N 44°07' E 028°45'0 0.0
2017-Oct-17 09:30N 44°07' E 028°45'0 0.0
2017-Oct-17 09:00N 44°07' E 028°45'1 2.5
2017-Oct-17 08:30N 44°06' E 028°46'4 8.6
2017-Oct-17 08:00N 44°01' E 028°48'5 9.1
2017-Oct-17 07:31N 43°57' E 028°50'5 9.2
2017-Oct-17 07:00N 43°53' E 028°51'5 9.2
2017-Oct-17 06:31N 43°48' E 028°52'5 9.0
2017-Oct-17 06:00N 43°44' E 028°52'4 8.9
2017-Oct-17 05:30N 43°39' E 028°52'4 8.7
2017-Oct-17 05:01N 43°35' E 028°53'4 8.7
2017-Oct-17 04:30N 43°31' E 028°54'4 8.8
2017-Oct-17 04:00N 43°26' E 028°55'4 8.9
2017-Oct-17 03:30N 43°22' E 028°56'148 7.5
2017-Oct-16 07:49N 40°54' E 029°06'1 4.7
2017-Oct-16 07:30N 40°54' E 029°08'3 5.6
2017-Oct-16 07:00N 40°53' E 029°11'0 0.2
2017-Oct-16 06:13N 40°53' E 029°11'0 0.0
2017-Oct-16 05:49N 40°53' E 029°11'0 0.1
2017-Oct-16 05:25N 40°53' E 029°11'0 0.0
2017-Oct-16 04:55N 40°53' E 029°11'0 0.0
2017-Oct-16 04:25N 40°53' E 029°11'0 0.0
2017-Oct-16 03:49N 40°53' E 029°11'0 0.0
2017-Oct-16 03:25N 40°53' E 029°11'0 0.0
2017-Oct-16 02:55N 40°53' E 029°11'0 0.0
2017-Oct-16 02:25N 40°53' E 029°11'0 0.0
2017-Oct-16 01:49N 40°53' E 029°11'0 0.0
2017-Oct-16 01:25N 40°53' E 029°11'0 0.0
2017-Oct-16 00:55N 40°53' E 029°11'0 0.0
2017-Oct-16 00:19N 40°53' E 029°11'0 0.0
2017-Oct-15 23:55N 40°53' E 029°11'0 0.0
2017-Oct-15 23:19N 40°53' E 029°11'0 0.0
2017-Oct-15 22:55N 40°53' E 029°11'0 0.0
2017-Oct-15 22:25N 40°53' E 029°11'0 0.0
2017-Oct-15 21:55N 40°53' E 029°11'0 0.0
2017-Oct-15 21:25N 40°53' E 029°11'0 0.1
2017-Oct-15 20:55N 40°53' E 029°11'0 0.1
2017-Oct-15 20:18N 40°53' E 029°11'0 0.0
2017-Oct-15 20:00N 40°53' E 029°11'0 0.0
2017-Oct-15 19:30N 40°53' E 029°11'0 0.0
2017-Oct-15 18:54N 40°53' E 029°11'0 0.0
2017-Oct-15 18:27N 40°53' E 029°11'0 0.0
2017-Oct-15 17:57N 40°53' E 029°11'0 0.0
2017-Oct-15 17:27N 40°53' E 029°11'0 0.0
2017-Oct-15 16:57N 40°53' E 029°11'0 0.0
2017-Oct-15 16:21N 40°53' E 029°11'0 0.0
2017-Oct-15 15:49N 40°53' E 029°11'0 0.0
2017-Oct-15 15:25N 40°53' E 029°11'0 0.0
2017-Oct-15 14:49N 40°53' E 029°11'0 0.0
2017-Oct-15 13:49N 40°53' E 029°11'0 0.0
2017-Oct-15 13:25N 40°53' E 029°11'0 0.0
2017-Oct-15 12:55N 40°53' E 029°11'0 0.0
2017-Oct-15 12:25N 40°53' E 029°11'0 0.0
2017-Oct-15 11:55N 40°53' E 029°11'0 0.0
2017-Oct-15 11:25N 40°53' E 029°11'0 0.0
2017-Oct-15 10:55N 40°53' E 029°11'0 0.0
2017-Oct-15 10:25N 40°53' E 029°11'0 0.0
2017-Oct-15 09:55N 40°53' E 029°11'0 0.0
2017-Oct-15 09:07N 40°53' E 029°11'0 0.1
2017-Oct-15 08:37N 40°53' E 029°11'0 0.0
2017-Oct-15 08:19N 40°53' E 029°11'0 0.0
2017-Oct-15 07:55N 40°53' E 029°11'0 0.1
2017-Oct-15 07:25N 40°53' E 029°11'0 0.0
2017-Oct-15 06:55N 40°53' E 029°11'0 0.1
2017-Oct-15 06:25N 40°53' E 029°11'0 0.1
2017-Oct-15 05:55N 40°53' E 029°11'0 0.0
2017-Oct-15 05:19N 40°53' E 029°11'0 0.0
2017-Oct-15 04:49N 40°53' E 029°11'0 0.0
2017-Oct-15 04:13N 40°53' E 029°11'0 0.0
2017-Oct-15 03:55N 40°53' E 029°11'0 0.0
2017-Oct-15 03:25N 40°53' E 029°11'0 0.0
2017-Oct-15 02:55N 40°53' E 029°11'0 0.1
2017-Oct-15 02:25N 40°53' E 029°11'0 0.1
2017-Oct-15 01:55N 40°53' E 029°11'0 0.0
2017-Oct-15 01:19N 40°53' E 029°11'0 0.0
2017-Oct-15 00:55N 40°53' E 029°11'0 0.0
2017-Oct-15 00:25N 40°53' E 029°11'0 0.0
2017-Oct-14 23:55N 40°53' E 029°11'0 0.0
2017-Oct-14 23:25N 40°53' E 029°11'0 0.0
2017-Oct-14 22:55N 40°53' E 029°11'0 0.0
2017-Oct-14 22:25N 40°53' E 029°11'0 0.0
2017-Oct-14 21:55N 40°53' E 029°11'0 0.0
2017-Oct-14 21:25N 40°53' E 029°11'0 0.0
2017-Oct-14 20:55N 40°53' E 029°11'0 0.0
2017-Oct-14 20:25N 40°53' E 029°11'0 0.0
2017-Oct-14 19:55N 40°53' E 029°11'0 0.0
2017-Oct-14 19:25N 40°53' E 029°11'0 0.0
2017-Oct-14 18:49N 40°53' E 029°11'0 0.0
2017-Oct-14 18:25N 40°53' E 029°11'0 0.0
2017-Oct-14 17:55N 40°53' E 029°11'0 0.0
2017-Oct-14 17:25N 40°53' E 029°11'0 0.1
2017-Oct-14 17:00N 40°53' E 029°11'2 3.7
2017-Oct-14 16:30N 40°51' E 029°12'4 8.3
2017-Oct-14 16:00N 40°47' E 029°15'5 8.9
2017-Oct-14 15:30N 40°45' E 029°20'  

Dump ship's entire track history